createdAt,value
2019-02-24T00:00:09.466Z,0.00
2019-02-24T00:01:09.454Z,0.00
2019-02-24T00:02:09.442Z,0.00
2019-02-24T00:03:09.430Z,0.00
2019-02-24T00:04:09.445Z,0.00
2019-02-24T00:05:09.415Z,0.00
2019-02-24T00:06:09.395Z,0.00
2019-02-24T00:07:09.381Z,0.00
2019-02-24T00:08:09.375Z,0.00
2019-02-24T00:09:09.387Z,0.00
2019-02-24T00:10:09.350Z,0.00
2019-02-24T00:11:09.864Z,0.00
2019-02-24T00:12:09.329Z,0.00
2019-02-24T00:13:09.322Z,0.00
2019-02-24T00:14:09.330Z,0.00
2019-02-24T00:15:09.307Z,0.00
2019-02-24T00:16:09.295Z,0.00
2019-02-24T00:17:09.273Z,0.00
2019-02-24T00:18:09.283Z,0.00
2019-02-24T00:19:09.267Z,0.00
2019-02-24T00:20:09.252Z,0.00
2019-02-24T00:21:09.231Z,0.00
2019-02-24T00:22:09.222Z,0.00
2019-02-24T00:23:09.211Z,0.00
2019-02-24T00:24:09.217Z,0.00
2019-02-24T00:25:09.183Z,0.00
2019-02-24T00:26:09.193Z,0.00
2019-02-24T00:27:09.165Z,0.00
2019-02-24T00:28:09.181Z,0.00
2019-02-24T00:29:09.167Z,0.00
2019-02-24T00:30:09.129Z,0.00
2019-02-24T00:31:09.119Z,0.00
2019-02-24T00:32:09.118Z,0.00
2019-02-24T00:33:09.105Z,0.00
2019-02-24T00:34:09.106Z,0.00
2019-02-24T00:35:09.075Z,0.00
2019-02-24T00:36:09.067Z,0.00
2019-02-24T00:37:09.051Z,0.00
2019-02-24T00:38:09.042Z,0.00
2019-02-24T00:39:09.064Z,0.00
2019-02-24T00:40:09.107Z,0.00
2019-02-24T00:41:09.015Z,0.00
2019-02-24T00:42:08.997Z,0.00
2019-02-24T00:43:09.003Z,0.00
2019-02-24T00:44:09.015Z,0.00
2019-02-24T00:45:08.970Z,0.00
2019-02-24T00:46:08.974Z,0.00
2019-02-24T00:47:08.943Z,0.00
2019-02-24T00:48:08.947Z,0.00
2019-02-24T00:49:08.945Z,0.00
2019-02-24T00:50:08.910Z,0.00
2019-02-24T00:51:08.904Z,0.00
2019-02-24T00:52:08.886Z,0.00
2019-02-24T00:53:08.878Z,0.00
2019-02-24T00:54:08.885Z,0.00
2019-02-24T00:55:08.858Z,0.00
2019-02-24T00:56:08.853Z,0.00
2019-02-24T00:57:08.840Z,0.00
2019-02-24T00:58:15.934Z,0.00
2019-02-24T00:59:08.828Z,0.00
2019-02-24T01:00:08.797Z,0.00
2019-02-24T01:01:08.791Z,0.00
2019-02-24T01:02:08.779Z,0.00
2019-02-24T01:03:08.773Z,0.00
2019-02-24T01:04:08.783Z,0.00
2019-02-24T01:05:08.751Z,0.00
2019-02-24T01:06:08.742Z,0.00
2019-02-24T01:07:08.738Z,0.00
2019-02-24T01:08:08.719Z,0.00
2019-02-24T01:09:08.703Z,0.00
2019-02-24T01:10:08.689Z,0.00
2019-02-24T01:11:08.688Z,0.00
2019-02-24T01:12:08.688Z,0.00
2019-02-24T01:13:08.663Z,0.00
2019-02-24T01:14:08.676Z,0.00
2019-02-24T01:15:08.636Z,0.00
2019-02-24T01:16:08.629Z,0.00
2019-02-24T01:17:08.621Z,0.00
2019-02-24T01:18:08.611Z,0.00
2019-02-24T01:19:08.624Z,0.00
2019-02-24T01:20:08.582Z,0.00
2019-02-24T01:21:08.567Z,0.00
2019-02-24T01:22:08.554Z,0.00
2019-02-24T01:23:08.549Z,0.00
2019-02-24T01:24:08.563Z,0.00
2019-02-24T01:25:08.527Z,0.00
2019-02-24T01:26:08.862Z,0.00
2019-02-24T01:27:08.533Z,0.00
2019-02-24T01:28:08.491Z,0.00
2019-02-24T01:29:08.505Z,0.00
2019-02-24T01:30:08.471Z,0.00
2019-02-24T01:31:08.468Z,0.00
2019-02-24T01:32:08.445Z,0.00
2019-02-24T01:33:08.449Z,0.00
2019-02-24T01:34:08.451Z,0.00
2019-02-24T01:35:08.411Z,0.00
2019-02-24T01:36:08.409Z,0.00
2019-02-24T01:37:08.393Z,0.00
2019-02-24T01:38:08.381Z,0.00
2019-02-24T01:39:08.379Z,0.00
2019-02-24T01:40:08.359Z,0.00
2019-02-24T01:41:08.349Z,0.00
2019-02-24T01:42:08.339Z,0.00
2019-02-24T01:43:08.331Z,0.00
2019-02-24T01:44:08.335Z,0.00
2019-02-24T01:45:08.299Z,0.00
2019-02-24T01:46:08.293Z,0.00
2019-02-24T01:47:08.289Z,0.00
2019-02-24T01:48:08.269Z,0.00
2019-02-24T01:49:08.291Z,0.00
2019-02-24T01:50:08.245Z,0.00
2019-02-24T01:51:08.239Z,0.00
2019-02-24T01:52:08.239Z,0.00
2019-02-24T01:53:08.217Z,0.00
2019-02-24T01:54:08.215Z,0.00
2019-02-24T01:55:08.215Z,0.00
2019-02-24T01:56:08.183Z,0.00
2019-02-24T01:57:08.179Z,0.00
2019-02-24T01:58:08.169Z,0.00
2019-02-24T01:59:08.156Z,0.00
2019-02-24T02:00:08.169Z,0.00
2019-02-24T02:01:08.124Z,0.00
2019-02-24T02:02:08.116Z,0.00
2019-02-24T02:03:08.103Z,0.00
2019-02-24T02:04:08.100Z,0.00
2019-02-24T02:05:08.099Z,0.00
2019-02-24T02:06:08.069Z,0.00
2019-02-24T02:07:08.059Z,0.00
2019-02-24T02:08:08.083Z,0.00
2019-02-24T02:09:08.036Z,0.00
2019-02-24T02:10:08.073Z,0.00
2019-02-24T02:11:08.023Z,0.00
2019-02-24T02:12:08.005Z,0.00
2019-02-24T02:13:07.991Z,0.00
2019-02-24T02:14:07.989Z,0.00
2019-02-24T02:15:07.997Z,0.00
2019-02-24T02:16:07.975Z,0.00
2019-02-24T02:17:07.951Z,0.00
2019-02-24T02:18:07.943Z,0.00
2019-02-24T02:19:07.922Z,0.00
2019-02-24T02:20:07.931Z,0.00
2019-02-24T02:21:07.913Z,0.00
2019-02-24T02:22:07.907Z,0.00
2019-02-24T02:23:07.881Z,0.00
2019-02-24T02:24:07.879Z,0.00
2019-02-24T02:25:07.887Z,0.00
2019-02-24T02:26:07.852Z,0.00
2019-02-24T02:27:07.835Z,0.00
2019-02-24T02:28:07.826Z,0.00
2019-02-24T02:29:07.831Z,0.00
2019-02-24T02:30:07.821Z,0.00
2019-02-24T02:31:07.797Z,0.00
2019-02-24T02:32:07.797Z,0.00
2019-02-24T02:33:07.782Z,0.00
2019-02-24T02:34:07.765Z,0.00
2019-02-24T02:35:07.786Z,0.00
2019-02-24T02:36:07.743Z,0.00
2019-02-24T02:37:07.727Z,0.00
2019-02-24T02:38:07.730Z,0.00
2019-02-24T02:39:07.714Z,0.00
2019-02-24T02:40:07.717Z,0.00
2019-02-24T02:41:07.693Z,0.00
2019-02-24T02:42:07.673Z,0.00
2019-02-24T02:43:07.665Z,0.00
2019-02-24T02:44:07.661Z,0.00
2019-02-24T02:45:07.671Z,0.00
2019-02-24T02:46:07.629Z,0.00
2019-02-24T02:47:07.621Z,0.00
2019-02-24T02:48:07.604Z,0.00
2019-02-24T02:49:07.606Z,0.00
2019-02-24T02:50:07.606Z,0.00
2019-02-24T02:51:07.574Z,0.00
2019-02-24T02:52:07.567Z,0.00
2019-02-24T02:53:07.553Z,0.00
2019-02-24T02:54:07.543Z,0.00
2019-02-24T02:55:07.548Z,0.00
2019-02-24T02:56:07.519Z,0.00
2019-02-24T02:57:07.505Z,0.00
2019-02-24T02:58:07.498Z,0.00
2019-02-24T02:59:07.490Z,0.00
2019-02-24T03:00:07.501Z,0.00
2019-02-24T03:01:07.463Z,0.00
2019-02-24T03:02:07.450Z,0.00
2019-02-24T03:03:07.440Z,0.00
2019-02-24T03:04:07.433Z,0.00
2019-02-24T03:05:07.448Z,0.00
2019-02-24T03:06:07.409Z,0.00
2019-02-24T03:07:07.402Z,0.00
2019-02-24T03:08:07.389Z,0.00
2019-02-24T03:09:07.378Z,0.00
2019-02-24T03:10:07.379Z,0.00
2019-02-24T03:11:07.348Z,0.00
2019-02-24T03:12:07.356Z,0.00
2019-02-24T03:13:07.331Z,0.00
2019-02-24T03:14:07.341Z,0.00
2019-02-24T03:15:07.335Z,0.00
2019-02-24T03:16:07.302Z,0.00
2019-02-24T03:17:07.342Z,0.00
2019-02-24T03:18:07.284Z,0.00
2019-02-24T03:19:07.263Z,0.00
2019-02-24T03:20:07.275Z,0.00
2019-02-24T03:21:07.241Z,0.00
2019-02-24T03:22:07.236Z,0.00
2019-02-24T03:23:07.233Z,0.00
2019-02-24T03:24:07.215Z,0.00
2019-02-24T03:25:07.227Z,0.00
2019-02-24T03:26:07.187Z,0.00
2019-02-24T03:27:07.181Z,0.00
2019-02-24T03:28:07.186Z,0.00
2019-02-24T03:29:07.153Z,0.00
2019-02-24T03:30:07.141Z,0.00
2019-02-24T03:31:07.153Z,0.00
2019-02-24T03:32:07.150Z,0.00
2019-02-24T03:33:07.120Z,0.00
2019-02-24T03:34:07.094Z,0.00
2019-02-24T03:35:07.098Z,0.00
2019-02-24T03:36:07.115Z,0.00
2019-02-24T03:37:07.071Z,0.00
2019-02-24T03:38:07.054Z,0.00
2019-02-24T03:39:07.050Z,0.00
2019-02-24T03:40:07.037Z,0.00
2019-02-24T03:41:07.041Z,0.00
2019-02-24T03:42:07.007Z,0.00
2019-02-24T03:43:07.030Z,0.00
2019-02-24T03:44:06.986Z,0.00
2019-02-24T03:45:06.985Z,0.00
2019-02-24T03:46:06.999Z,0.00
2019-02-24T03:47:06.953Z,0.00
2019-02-24T03:48:06.954Z,0.00
2019-02-24T03:49:06.931Z,0.00
2019-02-24T03:50:06.937Z,0.00
2019-02-24T03:51:06.937Z,0.00
2019-02-24T03:52:06.909Z,0.00
2019-02-24T03:53:06.885Z,0.00
2019-02-24T03:54:06.875Z,0.00
2019-02-24T03:55:06.861Z,0.00
2019-02-24T03:56:06.880Z,0.00
2019-02-24T03:57:06.865Z,0.00
2019-02-24T03:58:06.834Z,0.00
2019-02-24T03:59:14.653Z,0.00
2019-02-24T04:00:07.809Z,0.00
2019-02-24T04:01:06.817Z,0.00
2019-02-24T04:02:06.804Z,0.00
2019-02-24T04:03:06.784Z,0.00
2019-02-24T04:04:06.763Z,0.00
2019-02-24T04:05:06.753Z,0.00
2019-02-24T04:06:06.761Z,0.00
2019-02-24T04:07:06.731Z,0.00
2019-02-24T04:08:06.727Z,0.00
2019-02-24T04:09:06.716Z,0.00
2019-02-24T04:10:06.740Z,0.00
2019-02-24T04:11:07.211Z,0.00
2019-02-24T04:12:06.681Z,0.00
2019-02-24T04:13:06.667Z,0.00
2019-02-24T04:14:06.657Z,0.00
2019-02-24T04:15:06.672Z,0.00
2019-02-24T04:16:06.645Z,0.00
2019-02-24T04:17:06.622Z,0.00
2019-02-24T04:18:06.613Z,0.00
2019-02-24T04:19:06.615Z,0.00
2019-02-24T04:20:06.597Z,0.00
2019-02-24T04:21:06.613Z,0.00
2019-02-24T04:22:06.568Z,0.00
2019-02-24T04:23:06.561Z,0.00
2019-02-24T04:24:06.552Z,0.00
2019-02-24T04:25:06.533Z,0.00
2019-02-24T04:26:06.548Z,0.00
2019-02-24T04:27:06.511Z,0.00
2019-02-24T04:28:06.501Z,0.00
2019-02-24T04:29:06.486Z,0.00
2019-02-24T04:30:06.482Z,0.00
2019-02-24T04:31:06.489Z,0.00
2019-02-24T04:32:06.459Z,0.00
2019-02-24T04:33:06.444Z,0.00
2019-02-24T04:34:06.436Z,0.00
2019-02-24T04:35:06.424Z,0.00
2019-02-24T04:36:06.437Z,0.00
2019-02-24T04:37:06.409Z,0.00
2019-02-24T04:38:06.387Z,0.00
2019-02-24T04:39:06.375Z,0.00
2019-02-24T04:40:06.370Z,0.00
2019-02-24T04:41:06.493Z,0.00
2019-02-24T04:42:06.350Z,0.00
2019-02-24T04:43:06.342Z,0.00
2019-02-24T04:44:06.338Z,0.00
2019-02-24T04:45:06.311Z,0.00
2019-02-24T04:46:06.330Z,0.00
2019-02-24T04:47:06.288Z,0.00
2019-02-24T04:48:06.276Z,0.00
2019-02-24T04:49:06.277Z,0.00
2019-02-24T04:50:06.257Z,0.00
2019-02-24T04:51:06.268Z,0.00
2019-02-24T04:52:06.233Z,0.00
2019-02-24T04:53:06.228Z,0.00
2019-02-24T04:54:06.212Z,0.00
2019-02-24T04:55:06.309Z,0.00
2019-02-24T04:56:06.233Z,0.00
2019-02-24T04:57:06.186Z,0.00
2019-02-24T04:58:06.168Z,0.00
2019-02-24T04:59:06.157Z,0.00
2019-02-24T05:00:06.150Z,0.00
2019-02-24T05:01:06.149Z,0.00
2019-02-24T05:02:06.119Z,0.00
2019-02-24T05:03:06.114Z,0.00
2019-02-24T05:04:06.117Z,0.00
2019-02-24T05:05:06.100Z,0.00
2019-02-24T05:06:06.100Z,0.00
2019-02-24T05:07:06.069Z,0.00
2019-02-24T05:08:06.058Z,0.00
2019-02-24T05:09:06.043Z,0.00
2019-02-24T05:10:06.037Z,0.00
2019-02-24T05:11:06.043Z,0.00
2019-02-24T05:12:06.029Z,0.00
2019-02-24T05:13:06.006Z,0.00
2019-02-24T05:14:05.991Z,0.00
2019-02-24T05:15:05.993Z,0.00
2019-02-24T05:16:05.999Z,0.00
2019-02-24T05:17:05.967Z,0.00
2019-02-24T05:18:05.952Z,0.00
2019-02-24T05:19:05.937Z,0.00
2019-02-24T05:20:05.923Z,0.00
2019-02-24T05:21:05.940Z,0.00
2019-02-24T05:22:05.902Z,0.00
2019-02-24T05:23:05.907Z,0.00
2019-02-24T05:24:05.886Z,0.00
2019-02-24T05:25:05.867Z,0.00
2019-02-24T05:26:05.878Z,0.00
2019-02-24T05:27:05.859Z,0.00
2019-02-24T05:28:05.837Z,0.00
2019-02-24T05:29:05.841Z,0.00
2019-02-24T05:30:05.840Z,0.00
2019-02-24T05:31:05.800Z,0.00
2019-02-24T05:32:05.825Z,0.00
2019-02-24T05:33:05.787Z,0.00
2019-02-24T05:34:05.772Z,0.00
2019-02-24T05:35:05.769Z,0.00
2019-02-24T05:36:05.749Z,0.00
2019-02-24T05:37:05.747Z,0.00
2019-02-24T05:38:05.726Z,0.00
2019-02-24T05:39:05.713Z,0.00
2019-02-24T05:40:05.716Z,0.00
2019-02-24T05:41:05.688Z,0.00
2019-02-24T05:42:05.720Z,0.00
2019-02-24T05:43:05.679Z,0.00
2019-02-24T05:44:05.656Z,0.00
2019-02-24T05:45:05.653Z,0.00
2019-02-24T05:46:05.645Z,0.00
2019-02-24T05:47:05.644Z,0.00
2019-02-24T05:48:05.615Z,0.00
2019-02-24T05:49:05.605Z,0.00
2019-02-24T05:50:05.599Z,0.00
2019-02-24T05:51:05.589Z,0.00
2019-02-24T05:52:05.593Z,0.00
2019-02-24T05:53:05.565Z,0.00
2019-02-24T05:54:05.547Z,0.00
2019-02-24T05:55:05.534Z,0.00
2019-02-24T05:56:05.540Z,0.00
2019-02-24T05:57:05.545Z,0.00
2019-02-24T05:58:05.512Z,0.00
2019-02-24T05:59:05.492Z,5.62
2019-02-24T06:00:05.490Z,5.62
2019-02-24T06:01:05.475Z,5.62
2019-02-24T06:02:05.478Z,5.62
2019-02-24T06:03:05.452Z,5.62
2019-02-24T06:04:05.451Z,5.62
2019-02-24T06:05:05.432Z,5.62
2019-02-24T06:06:05.416Z,5.62
2019-02-24T06:07:05.427Z,5.62
2019-02-24T06:08:05.389Z,11.25
2019-02-24T06:09:05.389Z,11.25
2019-02-24T06:10:05.375Z,11.25
2019-02-24T06:11:05.365Z,11.25
2019-02-24T06:12:05.375Z,16.88
2019-02-24T06:13:05.339Z,16.88
2019-02-24T06:14:05.323Z,16.88
2019-02-24T06:15:05.327Z,16.88
2019-02-24T06:16:05.306Z,16.88
2019-02-24T06:17:05.320Z,22.50
2019-02-24T06:18:05.278Z,22.50
2019-02-24T06:19:05.273Z,22.50
2019-02-24T06:20:05.264Z,22.50
2019-02-24T06:21:05.257Z,28.12
2019-02-24T06:22:05.263Z,28.12
2019-02-24T06:23:05.231Z,28.12
2019-02-24T06:24:05.217Z,28.12
2019-02-24T06:25:05.214Z,33.75
2019-02-24T06:26:05.207Z,33.75
2019-02-24T06:27:05.204Z,33.75
2019-02-24T06:28:05.167Z,33.75
2019-02-24T06:29:05.161Z,39.38
2019-02-24T06:30:05.833Z,39.38
2019-02-24T06:31:05.140Z,39.38
2019-02-24T06:32:05.142Z,39.38
2019-02-24T06:33:05.117Z,39.38
2019-02-24T06:34:05.104Z,39.38
2019-02-24T06:35:05.096Z,45.00
2019-02-24T06:36:05.084Z,45.00
2019-02-24T06:37:05.104Z,45.00
2019-02-24T06:38:05.062Z,45.00
2019-02-24T06:39:05.052Z,45.00
2019-02-24T06:40:05.041Z,45.00
2019-02-24T06:41:05.870Z,45.00
2019-02-24T06:42:05.042Z,45.00
2019-02-24T06:43:05.005Z,50.62
2019-02-24T06:44:04.994Z,50.62
2019-02-24T06:45:04.990Z,50.62
2019-02-24T06:46:04.971Z,50.62
2019-02-24T06:47:04.983Z,50.62
2019-02-24T06:48:04.968Z,50.62
2019-02-24T06:49:04.942Z,50.62
2019-02-24T06:50:04.939Z,50.62
2019-02-24T06:51:04.920Z,50.62
2019-02-24T06:52:04.929Z,56.25
2019-02-24T06:53:04.918Z,56.25
2019-02-24T06:54:04.891Z,56.25
2019-02-24T06:55:04.875Z,56.25
2019-02-24T06:56:04.877Z,56.25
2019-02-24T06:57:04.884Z,56.25
2019-02-24T06:58:04.838Z,56.25
2019-02-24T06:59:04.829Z,56.25
2019-02-24T07:00:13.587Z,56.25
2019-02-24T07:01:05.805Z,56.25
2019-02-24T07:02:04.809Z,61.88
2019-02-24T07:03:04.785Z,61.88
2019-02-24T07:04:04.774Z,61.88
2019-02-24T07:05:04.765Z,67.50
2019-02-24T07:06:04.753Z,67.50
2019-02-24T07:07:04.781Z,67.50
2019-02-24T07:08:04.725Z,67.50
2019-02-24T07:09:04.726Z,67.50
2019-02-24T07:10:04.705Z,73.12
2019-02-24T07:11:04.705Z,73.12
2019-02-24T07:12:04.684Z,73.12
2019-02-24T07:13:04.704Z,73.12
2019-02-24T07:14:04.681Z,78.75
2019-02-24T07:15:04.651Z,78.75
2019-02-24T07:16:04.637Z,78.75
2019-02-24T07:17:04.634Z,84.38
2019-02-24T07:18:04.726Z,84.38
2019-02-24T07:19:04.625Z,90.00
2019-02-24T07:20:04.599Z,90.00
2019-02-24T07:21:04.587Z,95.62
2019-02-24T07:22:04.571Z,101.25
2019-02-24T07:23:04.585Z,101.25
2019-02-24T07:24:04.556Z,106.88
2019-02-24T07:25:04.548Z,112.50
2019-02-24T07:26:04.533Z,112.50
2019-02-24T07:27:04.521Z,118.12
2019-02-24T07:28:04.535Z,118.12
2019-02-24T07:29:04.497Z,123.75
2019-02-24T07:30:04.486Z,129.38
2019-02-24T07:31:04.469Z,129.38
2019-02-24T07:32:04.464Z,135.00
2019-02-24T07:33:04.474Z,135.00
2019-02-24T07:34:04.446Z,140.62
2019-02-24T07:35:04.443Z,140.62
2019-02-24T07:36:04.422Z,146.25
2019-02-24T07:37:12.558Z,146.25
2019-02-24T07:38:05.430Z,146.25
2019-02-24T07:39:04.383Z,146.25
2019-02-24T07:40:04.380Z,151.88
2019-02-24T07:41:04.365Z,151.88
2019-02-24T07:42:04.358Z,157.50
2019-02-24T07:43:04.368Z,157.50
2019-02-24T07:44:04.333Z,163.12
2019-02-24T07:45:04.324Z,163.12
2019-02-24T07:46:04.309Z,163.12
2019-02-24T07:47:04.305Z,168.75
2019-02-24T07:48:04.303Z,168.75
2019-02-24T07:49:04.274Z,174.38
2019-02-24T07:50:04.263Z,174.38
2019-02-24T07:51:04.253Z,180.00
2019-02-24T07:52:04.240Z,180.00
2019-02-24T07:53:04.253Z,185.62
2019-02-24T07:54:04.226Z,185.62
2019-02-24T07:55:04.213Z,185.62
2019-02-24T07:56:04.201Z,185.62
2019-02-24T07:57:04.188Z,185.62
2019-02-24T07:58:04.211Z,191.25
2019-02-24T07:59:04.174Z,191.25
2019-02-24T08:00:04.165Z,191.25
2019-02-24T08:01:04.142Z,196.88
2019-02-24T08:02:04.125Z,196.88
2019-02-24T08:03:04.145Z,196.88
2019-02-24T08:04:04.119Z,202.50
2019-02-24T08:05:04.111Z,202.50
2019-02-24T08:06:04.093Z,208.12
2019-02-24T08:07:04.072Z,208.12
2019-02-24T08:08:04.084Z,213.75
2019-02-24T08:09:04.073Z,213.75
2019-02-24T08:10:04.045Z,213.75
2019-02-24T08:11:04.035Z,213.75
2019-02-24T08:12:04.018Z,219.38
2019-02-24T08:13:04.041Z,225.00
2019-02-24T08:14:04.005Z,225.00
2019-02-24T08:15:04.045Z,225.00
2019-02-24T08:16:03.989Z,230.62
2019-02-24T08:17:03.978Z,230.62
2019-02-24T08:18:03.986Z,236.25
2019-02-24T08:19:03.941Z,241.88
2019-02-24T08:20:03.962Z,247.50
2019-02-24T08:21:04.002Z,258.75
2019-02-24T08:22:03.915Z,264.38
2019-02-24T08:23:03.916Z,275.62
2019-02-24T08:24:03.915Z,281.25
2019-02-24T08:25:03.882Z,286.88
2019-02-24T08:26:03.869Z,292.50
2019-02-24T08:27:03.850Z,298.12
2019-02-24T08:28:03.840Z,298.12
2019-02-24T08:29:03.861Z,303.75
2019-02-24T08:30:03.818Z,303.75
2019-02-24T08:31:03.807Z,303.75
2019-02-24T08:32:03.804Z,309.38
2019-02-24T08:33:03.797Z,309.38
2019-02-24T08:34:03.791Z,309.38
2019-02-24T08:35:03.765Z,309.38
2019-02-24T08:36:03.750Z,309.38
2019-02-24T08:37:03.741Z,309.38
2019-02-24T08:38:03.735Z,303.75
2019-02-24T08:39:03.747Z,303.75
2019-02-24T08:40:03.718Z,303.75
2019-02-24T08:41:03.691Z,303.75
2019-02-24T08:42:03.695Z,303.75
2019-02-24T08:43:03.672Z,292.50
2019-02-24T08:44:03.690Z,275.62
2019-02-24T08:45:03.659Z,264.38
2019-02-24T08:46:03.638Z,253.12
2019-02-24T08:47:03.630Z,241.88
2019-02-24T08:48:03.617Z,236.25
2019-02-24T08:49:03.629Z,258.75
2019-02-24T08:50:03.608Z,219.38
2019-02-24T08:51:03.603Z,202.50
2019-02-24T08:52:03.577Z,230.62
2019-02-24T08:53:03.564Z,202.50
2019-02-24T08:54:03.582Z,202.50
2019-02-24T08:55:03.545Z,196.88
2019-02-24T08:56:03.534Z,191.25
2019-02-24T08:57:03.525Z,196.88
2019-02-24T08:58:03.511Z,191.25
2019-02-24T08:59:03.512Z,185.62
2019-02-24T09:00:03.492Z,191.25
2019-02-24T09:01:03.477Z,191.25
2019-02-24T09:02:03.467Z,185.62
2019-02-24T09:03:03.469Z,191.25
2019-02-24T09:04:03.464Z,191.25
2019-02-24T09:05:03.428Z,191.25
2019-02-24T09:06:03.429Z,196.88
2019-02-24T09:07:03.408Z,191.25
2019-02-24T09:08:03.402Z,191.25
2019-02-24T09:09:03.401Z,191.25
2019-02-24T09:10:03.374Z,196.88
2019-02-24T09:11:03.363Z,196.88
2019-02-24T09:12:03.351Z,196.88
2019-02-24T09:13:03.347Z,196.88
2019-02-24T09:14:03.349Z,191.25
2019-02-24T09:15:03.316Z,191.25
2019-02-24T09:16:03.309Z,196.88
2019-02-24T09:17:03.298Z,196.88
2019-02-24T09:18:03.289Z,196.88
2019-02-24T09:19:03.309Z,196.88
2019-02-24T09:20:03.265Z,196.88
2019-02-24T09:21:03.258Z,191.25
2019-02-24T09:22:03.246Z,191.25
2019-02-24T09:23:03.235Z,191.25
2019-02-24T09:24:03.237Z,196.88
2019-02-24T09:25:03.521Z,196.88
2019-02-24T09:26:03.208Z,196.88
2019-02-24T09:27:03.181Z,196.88
2019-02-24T09:28:03.178Z,196.88
2019-02-24T09:29:03.205Z,196.88
2019-02-24T09:30:03.161Z,196.88
2019-02-24T09:31:03.147Z,196.88
2019-02-24T09:32:03.598Z,196.88
2019-02-24T09:33:03.120Z,196.88
2019-02-24T09:34:03.116Z,196.88
2019-02-24T09:35:03.111Z,196.88
2019-02-24T09:36:03.092Z,196.88
2019-02-24T09:37:03.080Z,196.88
2019-02-24T09:38:03.062Z,196.88
2019-02-24T09:39:03.057Z,196.88
2019-02-24T09:40:03.065Z,202.50
2019-02-24T09:41:03.032Z,202.50
2019-02-24T09:42:03.037Z,202.50
2019-02-24T09:43:03.011Z,202.50
2019-02-24T09:44:03.093Z,208.12
2019-02-24T09:45:03.119Z,213.75
2019-02-24T09:46:02.981Z,230.62
2019-02-24T09:47:02.986Z,247.50
2019-02-24T09:48:02.953Z,264.38
2019-02-24T09:49:02.942Z,270.00
2019-02-24T09:50:02.952Z,258.75
2019-02-24T09:51:02.914Z,253.12
2019-02-24T09:52:02.913Z,258.75
2019-02-24T09:53:02.889Z,281.25
2019-02-24T09:54:02.887Z,315.00
2019-02-24T09:55:02.894Z,348.75
2019-02-24T09:56:02.878Z,371.25
2019-02-24T09:57:02.851Z,388.12
2019-02-24T09:58:02.841Z,399.38
2019-02-24T09:59:02.825Z,405.00
2019-02-24T10:00:02.854Z,410.62
2019-02-24T10:01:10.166Z,416.25
2019-02-24T10:02:03.797Z,427.50
2019-02-24T10:03:02.788Z,433.12
2019-02-24T10:04:02.783Z,450.00
2019-02-24T10:05:02.795Z,461.25
2019-02-24T10:06:02.760Z,478.12
2019-02-24T10:07:02.741Z,489.38
2019-02-24T10:08:02.724Z,506.25
2019-02-24T10:09:02.715Z,511.88
2019-02-24T10:10:02.734Z,528.75
2019-02-24T10:11:02.698Z,545.62
2019-02-24T10:12:02.684Z,562.50
2019-02-24T10:13:02.667Z,573.75
2019-02-24T10:14:02.662Z,579.38
2019-02-24T10:15:02.679Z,596.25
2019-02-24T10:16:02.636Z,624.38
2019-02-24T10:17:02.639Z,658.12
2019-02-24T10:18:02.626Z,658.12
2019-02-24T10:19:02.612Z,669.38
2019-02-24T10:20:02.608Z,691.88
2019-02-24T10:21:02.582Z,714.38
2019-02-24T10:22:02.570Z,731.25
2019-02-24T10:23:02.572Z,759.38
2019-02-24T10:24:02.545Z,781.88
2019-02-24T10:25:02.574Z,798.75
2019-02-24T10:26:02.558Z,810.00
2019-02-24T10:27:02.514Z,826.88
2019-02-24T10:28:02.494Z,843.75
2019-02-24T10:29:02.496Z,860.62
2019-02-24T10:30:02.504Z,877.50
2019-02-24T10:31:02.471Z,888.75
2019-02-24T10:32:02.471Z,905.62
2019-02-24T10:33:02.452Z,928.12
2019-02-24T10:34:02.434Z,945.00
2019-02-24T10:35:02.448Z,961.88
2019-02-24T10:36:02.411Z,978.75
2019-02-24T10:37:02.409Z,1006.88
2019-02-24T10:38:02.387Z,1035.00
2019-02-24T10:39:02.379Z,1085.62
2019-02-24T10:40:02.389Z,1305.00
2019-02-24T10:41:02.372Z,2283.75
2019-02-24T10:42:02.337Z,2925.00
2019-02-24T10:43:02.327Z,2823.75
2019-02-24T10:44:02.331Z,2840.62
2019-02-24T10:45:02.346Z,2964.38
2019-02-24T10:46:02.310Z,2902.50
2019-02-24T10:47:02.497Z,2953.12
2019-02-24T10:48:02.293Z,3116.25
2019-02-24T10:49:03.695Z,3065.62
2019-02-24T10:50:02.248Z,3060.00
2019-02-24T10:51:02.282Z,3054.38
2019-02-24T10:52:02.232Z,3110.62
2019-02-24T10:53:02.265Z,3206.25
2019-02-24T10:54:02.209Z,3318.75
2019-02-24T10:55:02.201Z,3273.75
2019-02-24T10:56:02.223Z,3470.62
2019-02-24T10:57:02.183Z,3796.88
2019-02-24T10:58:02.162Z,3808.12
2019-02-24T10:59:02.146Z,3718.12
2019-02-24T11:00:02.156Z,3723.75
2019-02-24T11:01:02.143Z,3791.25
2019-02-24T11:02:02.115Z,3785.62
2019-02-24T11:03:02.133Z,3813.75
2019-02-24T11:04:02.093Z,3864.38
2019-02-24T11:05:02.084Z,3830.62
2019-02-24T11:06:02.096Z,3757.50
2019-02-24T11:07:02.066Z,3802.50
2019-02-24T11:08:02.045Z,3886.88
2019-02-24T11:09:02.044Z,3909.38
2019-02-24T11:10:03.850Z,3763.12
2019-02-24T11:11:02.033Z,3706.88
2019-02-24T11:12:02.003Z,3813.75
2019-02-24T11:13:02.085Z,3825.00
2019-02-24T11:14:01.993Z,3735.00
2019-02-24T11:15:01.999Z,3723.75
2019-02-24T11:16:01.997Z,3847.50
2019-02-24T11:17:01.965Z,3909.38
2019-02-24T11:18:01.944Z,3920.62
2019-02-24T11:19:01.928Z,4016.25
2019-02-24T11:20:01.922Z,3993.75
2019-02-24T11:21:01.927Z,3870.00
2019-02-24T11:22:02.644Z,3729.38
2019-02-24T11:23:01.901Z,3650.62
2019-02-24T11:24:01.879Z,3695.62
2019-02-24T11:25:01.866Z,3656.25
2019-02-24T11:26:01.884Z,3633.75
2019-02-24T11:27:01.835Z,3780.00
2019-02-24T11:28:01.825Z,3886.88
2019-02-24T11:29:01.827Z,3847.50
2019-02-24T11:30:01.811Z,3757.50
2019-02-24T11:31:01.822Z,3718.12
2019-02-24T11:32:01.786Z,3746.25
2019-02-24T11:33:01.772Z,3678.75
2019-02-24T11:34:01.761Z,3583.12
2019-02-24T11:35:01.751Z,3577.50
2019-02-24T11:36:01.753Z,3673.12
2019-02-24T11:37:01.743Z,3690.00
2019-02-24T11:38:01.733Z,3650.62
2019-02-24T11:39:01.710Z,3667.50
2019-02-24T11:40:01.696Z,3735.00
2019-02-24T11:41:01.699Z,3774.38
2019-02-24T11:42:01.684Z,3690.00
2019-02-24T11:43:01.664Z,3605.62
2019-02-24T11:44:01.656Z,3656.25
2019-02-24T11:45:01.644Z,3695.62
2019-02-24T11:46:01.649Z,3639.38
2019-02-24T11:47:01.621Z,3712.50
2019-02-24T11:48:01.611Z,3796.88
2019-02-24T11:49:01.599Z,3622.50
2019-02-24T11:50:01.599Z,3605.62
2019-02-24T11:51:01.604Z,3555.00
2019-02-24T11:52:03.931Z,3375.00
2019-02-24T11:53:01.557Z,3532.50
2019-02-24T11:54:01.545Z,3645.00
2019-02-24T11:55:01.545Z,3459.38
2019-02-24T11:56:01.555Z,3296.25
2019-02-24T11:57:01.528Z,3408.75
2019-02-24T11:58:01.508Z,3577.50
2019-02-24T11:59:01.499Z,3510.00
2019-02-24T12:00:01.484Z,3560.62
2019-02-24T12:01:01.489Z,3661.88
2019-02-24T12:02:01.464Z,3616.88
2019-02-24T12:03:01.449Z,3526.88
2019-02-24T12:04:01.437Z,3470.62
2019-02-24T12:05:01.427Z,3510.00
2019-02-24T12:06:01.440Z,3386.25
2019-02-24T12:07:01.414Z,3048.75
2019-02-24T12:08:01.410Z,2728.12
2019-02-24T12:09:05.165Z,2576.25
2019-02-24T12:10:01.377Z,2345.62
2019-02-24T12:11:01.394Z,2064.38
2019-02-24T12:12:01.355Z,1901.25
2019-02-24T12:13:01.352Z,1845.00
2019-02-24T12:14:01.351Z,1816.88
2019-02-24T12:15:01.326Z,1861.88
2019-02-24T12:16:01.329Z,1800.00
2019-02-24T12:17:01.310Z,1698.75
2019-02-24T12:18:01.293Z,1445.62
2019-02-24T12:19:01.284Z,1518.75
2019-02-24T12:20:01.281Z,1591.88
2019-02-24T12:21:01.277Z,1496.25
2019-02-24T12:22:01.247Z,1546.88
2019-02-24T12:23:01.240Z,1665.00
2019-02-24T12:24:01.276Z,1575.00
2019-02-24T12:25:01.226Z,1456.88
2019-02-24T12:26:01.228Z,1271.25
2019-02-24T12:27:01.202Z,1080.00
2019-02-24T12:28:01.196Z,1113.75
2019-02-24T12:29:01.176Z,1316.25
2019-02-24T12:30:01.163Z,1361.25
2019-02-24T12:31:01.187Z,1260.00
2019-02-24T12:32:01.145Z,1085.62
2019-02-24T12:33:01.130Z,1001.25
2019-02-24T12:34:01.137Z,1046.25
2019-02-24T12:35:01.112Z,1108.12
2019-02-24T12:36:01.097Z,1305.00
2019-02-24T12:37:01.124Z,1406.25
2019-02-24T12:38:01.082Z,1158.75
2019-02-24T12:39:01.069Z,1096.88
2019-02-24T12:40:01.055Z,1209.38
2019-02-24T12:41:01.058Z,1282.50
2019-02-24T12:42:01.054Z,1350.00
2019-02-24T12:43:01.035Z,1411.88
2019-02-24T12:44:01.005Z,1406.25
2019-02-24T12:45:01.004Z,1282.50
2019-02-24T12:46:00.984Z,1063.12
2019-02-24T12:47:00.999Z,1046.25
2019-02-24T12:48:00.969Z,1254.38
2019-02-24T12:49:00.961Z,1366.88